sensor_id;sensor_type;location;lat;lon;timestamp;pressure;altitude;pressure_sealevel;temperature;humidity
7962;BME280;4026;43.652;24.906;2024-02-23T00:01:24;98848.69;;;9.64;58.36
7962;BME280;4026;43.652;24.906;2024-02-23T00:03:51;98851.94;;;9.66;58.17
7962;BME280;4026;43.652;24.906;2024-02-23T00:06:17;98847.69;;;9.43;59.32
7962;BME280;4026;43.652;24.906;2024-02-23T00:08:46;98842.69;;;9.41;59.32
7962;BME280;4026;43.652;24.906;2024-02-23T00:11:12;98855.13;;;9.46;59.21
7962;BME280;4026;43.652;24.906;2024-02-23T00:13:39;98848.38;;;9.45;59.16
7962;BME280;4026;43.652;24.906;2024-02-23T00:16:06;98850.47;;;9.40;59.60
7962;BME280;4026;43.652;24.906;2024-02-23T00:18:33;98842.31;;;9.35;59.69
7962;BME280;4026;43.652;24.906;2024-02-23T00:21:00;98843.94;;;9.36;59.73
7962;BME280;4026;43.652;24.906;2024-02-23T00:23:26;98842.53;;;9.32;60.00
7962;BME280;4026;43.652;24.906;2024-02-23T00:25:55;98841.94;;;9.28;60.06
7962;BME280;4026;43.652;24.906;2024-02-23T00:28:22;98833.19;;;9.19;61.43
7962;BME280;4026;43.652;24.906;2024-02-23T00:30:49;98829.28;;;9.26;59.82
7962;BME280;4026;43.652;24.906;2024-02-23T00:33:15;98835.19;;;9.27;59.88
7962;BME280;4026;43.652;24.906;2024-02-23T00:35:42;98829.06;;;9.29;59.98
7962;BME280;4026;43.652;24.906;2024-02-23T00:38:09;98826.44;;;9.18;60.72
7962;BME280;4026;43.652;24.906;2024-02-23T00:40:36;98821.84;;;9.23;60.16
7962;BME280;4026;43.652;24.906;2024-02-23T00:43:05;98823.00;;;9.19;60.55
7962;BME280;4026;43.652;24.906;2024-02-23T00:45:31;98827.03;;;9.22;59.70
7962;BME280;4026;43.652;24.906;2024-02-23T00:47:58;98821.91;;;9.35;58.94
7962;BME280;4026;43.652;24.906;2024-02-23T00:50:25;98827.06;;;9.46;58.72
7962;BME280;4026;43.652;24.906;2024-02-23T00:52:52;98822.16;;;9.43;58.73
7962;BME280;4026;43.652;24.906;2024-02-23T00:55:19;98827.50;;;9.51;58.44
7962;BME280;4026;43.652;24.906;2024-02-23T00:57:46;98817.53;;;9.48;58.68
7962;BME280;4026;43.652;24.906;2024-02-23T01:00:15;98811.47;;;9.38;58.80
7962;BME280;4026;43.652;24.906;2024-02-23T01:02:42;98810.31;;;9.42;58.53
7962;BME280;4026;43.652;24.906;2024-02-23T01:05:09;98814.56;;;9.30;59.64
7962;BME280;4026;43.652;24.906;2024-02-23T01:07:36;98811.47;;;9.38;59.04
7962;BME280;4026;43.652;24.906;2024-02-23T01:10:03;98810.75;;;9.36;58.58
7962;BME280;4026;43.652;24.906;2024-02-23T01:12:30;98811.25;;;9.41;58.68
7962;BME280;4026;43.652;24.906;2024-02-23T01:14:57;98816.72;;;9.47;58.41
7962;BME280;4026;43.652;24.906;2024-02-23T01:17:25;98806.72;;;9.44;58.85
7962;BME280;4026;43.652;24.906;2024-02-23T01:19:52;98808.56;;;9.42;58.38
7962;BME280;4026;43.652;24.906;2024-02-23T01:22:19;98808.03;;;9.50;58.41
7962;BME280;4026;43.652;24.906;2024-02-23T01:24:46;98797.56;;;9.42;58.41
7962;BME280;4026;43.652;24.906;2024-02-23T01:27:12;98803.63;;;9.52;58.35
7962;BME280;4026;43.652;24.906;2024-02-23T01:29:39;98796.88;;;9.40;58.86
7962;BME280;4026;43.652;24.906;2024-02-23T01:32:06;98796.69;;;9.54;58.19
7962;BME280;4026;43.652;24.906;2024-02-23T01:34:34;98799.25;;;9.65;56.69
7962;BME280;4026;43.652;24.906;2024-02-23T01:37:01;98794.53;;;9.72;57.21
7962;BME280;4026;43.652;24.906;2024-02-23T01:39:28;98790.53;;;9.57;57.12
7962;BME280;4026;43.652;24.906;2024-02-23T01:41:55;98793.06;;;9.45;57.94
7962;BME280;4026;43.652;24.906;2024-02-23T01:44:21;98788.31;;;9.52;57.89
7962;BME280;4026;43.652;24.906;2024-02-23T01:46:49;98786.44;;;9.43;57.65
7962;BME280;4026;43.652;24.906;2024-02-23T01:49:16;98787.63;;;9.50;57.64
7962;BME280;4026;43.652;24.906;2024-02-23T01:51:45;98793.91;;;9.68;56.71
7962;BME280;4026;43.652;24.906;2024-02-23T01:54:12;98787.44;;;9.64;57.34
7962;BME280;4026;43.652;24.906;2024-02-23T01:56:39;98792.22;;;9.45;58.16
7962;BME280;4026;43.652;24.906;2024-02-23T01:59:06;98795.03;;;9.53;58.80
7962;BME280;4026;43.652;24.906;2024-02-23T02:01:33;98797.78;;;9.39;58.64
7962;BME280;4026;43.652;24.906;2024-02-23T02:03:59;98793.56;;;9.26;59.04
7962;BME280;4026;43.652;24.906;2024-02-23T02:06:26;98790.53;;;9.21;59.83
7962;BME280;4026;43.652;24.906;2024-02-23T02:08:54;98792.69;;;9.15;60.27
7962;BME280;4026;43.652;24.906;2024-02-23T02:11:21;98796.78;;;9.17;59.15
7962;BME280;4026;43.652;24.906;2024-02-23T02:13:48;98792.31;;;9.08;59.97
7962;BME280;4026;43.652;24.906;2024-02-23T02:16:15;98791.84;;;9.03;60.64
7962;BME280;4026;43.652;24.906;2024-02-23T02:18:42;98798.78;;;9.01;61.73
7962;BME280;4026;43.652;24.906;2024-02-23T02:21:09;98798.97;;;8.98;62.65
7962;BME280;4026;43.652;24.906;2024-02-23T02:23:36;98797.09;;;9.13;60.17
7962;BME280;4026;43.652;24.906;2024-02-23T02:26:05;98801.16;;;9.15;59.55
7962;BME280;4026;43.652;24.906;2024-02-23T02:28:31;98796.28;;;9.12;59.37
7962;BME280;4026;43.652;24.906;2024-02-23T02:30:59;98790.69;;;9.31;58.94
7962;BME280;4026;43.652;24.906;2024-02-23T02:33:26;98791.06;;;9.38;58.13
7962;BME280;4026;43.652;24.906;2024-02-23T02:35:53;98792.00;;;9.48;58.14
7962;BME280;4026;43.652;24.906;2024-02-23T02:38:20;98801.09;;;9.52;57.93
7962;BME280;4026;43.652;24.906;2024-02-23T02:40:46;98805.59;;;9.48;57.96
7962;BME280;4026;43.652;24.906;2024-02-23T02:43:15;98798.53;;;9.52;57.23
7962;BME280;4026;43.652;24.906;2024-02-23T02:45:41;98800.38;;;9.50;57.24
7962;BME280;4026;43.652;24.906;2024-02-23T02:48:09;98803.09;;;9.36;58.39
7962;BME280;4026;43.652;24.906;2024-02-23T02:50:36;98807.19;;;9.38;58.96
7962;BME280;4026;43.652;24.906;2024-02-23T02:53:03;98802.59;;;9.30;58.89
7962;BME280;4026;43.652;24.906;2024-02-23T02:55:30;98807.69;;;9.19;59.71
7962;BME280;4026;43.652;24.906;2024-02-23T02:57:56;98796.59;;;9.32;58.69
7962;BME280;4026;43.652;24.906;2024-02-23T03:00:25;98800.50;;;9.24;59.58
7962;BME280;4026;43.652;24.906;2024-02-23T03:02:52;98802.81;;;9.16;59.47
7962;BME280;4026;43.652;24.906;2024-02-23T03:05:19;98806.25;;;9.15;59.78
7962;BME280;4026;43.652;24.906;2024-02-23T03:07:46;98803.78;;;9.02;60.26
7962;BME280;4026;43.652;24.906;2024-02-23T03:10:13;98805.09;;;8.95;61.25
7962;BME280;4026;43.652;24.906;2024-02-23T03:12:39;98800.06;;;8.82;61.96
7962;BME280;4026;43.652;24.906;2024-02-23T03:15:06;98798.22;;;8.84;62.01
7962;BME280;4026;43.652;24.906;2024-02-23T03:17:35;98803.13;;;8.88;62.54
7962;BME280;4026;43.652;24.906;2024-02-23T03:20:03;98798.31;;;8.83;62.74
7962;BME280;4026;43.652;24.906;2024-02-23T03:22:33;98799.84;;;8.86;62.42
7962;BME280;4026;43.652;24.906;2024-02-23T03:25:00;98805.38;;;8.79;63.58
7962;BME280;4026;43.652;24.906;2024-02-23T03:27:34;98801.66;;;8.96;63.10
7962;BME280;4026;43.652;24.906;2024-02-23T03:30:01;98804.00;;;8.87;63.43
7962;BME280;4026;43.652;24.906;2024-02-23T03:32:28;98802.53;;;8.71;64.54
7962;BME280;4026;43.652;24.906;2024-02-23T03:34:58;98804.38;;;8.69;64.81
7962;BME280;4026;43.652;24.906;2024-02-23T03:37:24;98809.25;;;8.85;64.27
7962;BME280;4026;43.652;24.906;2024-02-23T03:39:51;98806.78;;;8.83;63.83
7962;BME280;4026;43.652;24.906;2024-02-23T03:42:18;98810.25;;;8.82;64.50
7962;BME280;4026;43.652;24.906;2024-02-23T03:44:45;98812.59;;;8.86;65.01
7962;BME280;4026;43.652;24.906;2024-02-23T03:47:11;98812.72;;;8.71;66.21
7962;BME280;4026;43.652;24.906;2024-02-23T03:49:38;98811.13;;;8.70;65.64
7962;BME280;4026;43.652;24.906;2024-02-23T03:52:06;98814.38;;;8.59;66.65
7962;BME280;4026;43.652;24.906;2024-02-23T03:54:33;98812.78;;;8.58;66.93
7962;BME280;4026;43.652;24.906;2024-02-23T03:57:00;98808.69;;;8.56;66.79
7962;BME280;4026;43.652;24.906;2024-02-23T03:59:28;98812.94;;;8.68;66.38
7962;BME280;4026;43.652;24.906;2024-02-23T04:01:54;98813.38;;;8.62;66.99
7962;BME280;4026;43.652;24.906;2024-02-23T04:04:21;98816.63;;;8.64;67.36
7962;BME280;4026;43.652;24.906;2024-02-23T04:06:48;98814.59;;;8.56;69.15
7962;BME280;4026;43.652;24.906;2024-02-23T04:09:16;98818.09;;;8.43;69.27
7962;BME280;4026;43.652;24.906;2024-02-23T04:11:43;98813.00;;;8.43;69.95
7962;BME280;4026;43.652;24.906;2024-02-23T04:14:10;98811.75;;;8.35;70.37
7962;BME280;4026;43.652;24.906;2024-02-23T04:16:36;98811.38;;;8.42;69.94
7962;BME280;4026;43.652;24.906;2024-02-23T04:19:03;98803.19;;;8.36;70.64
7962;BME280;4026;43.652;24.906;2024-02-23T04:21:30;98815.00;;;8.37;71.67
7962;BME280;4026;43.652;24.906;2024-02-23T04:23:57;98815.19;;;8.34;72.57
7962;BME280;4026;43.652;24.906;2024-02-23T04:26:25;98817.94;;;8.31;71.26
7962;BME280;4026;43.652;24.906;2024-02-23T04:28:52;98813.19;;;8.27;71.67
7962;BME280;4026;43.652;24.906;2024-02-23T04:31:19;98815.13;;;8.23;72.18
7962;BME280;4026;43.652;24.906;2024-02-23T04:33:45;98818.38;;;8.25;71.69
7962;BME280;4026;43.652;24.906;2024-02-23T04:36:12;98814.63;;;8.18;73.02
7962;BME280;4026;43.652;24.906;2024-02-23T04:38:40;98818.25;;;8.14;73.23
7962;BME280;4026;43.652;24.906;2024-02-23T04:41:06;98810.53;;;8.03;74.15
7962;BME280;4026;43.652;24.906;2024-02-23T04:43:35;98819.09;;;7.89;74.98
7962;BME280;4026;43.652;24.906;2024-02-23T04:46:02;98823.66;;;7.84;75.59
7962;BME280;4026;43.652;24.906;2024-02-23T04:48:28;98825.06;;;7.88;75.32
7962;BME280;4026;43.652;24.906;2024-02-23T04:50:56;98826.00;;;7.87;76.31
7962;BME280;4026;43.652;24.906;2024-02-23T04:53:23;98828.66;;;7.85;76.73
7962;BME280;4026;43.652;24.906;2024-02-23T04:55:50;98825.06;;;7.75;77.94
7962;BME280;4026;43.652;24.906;2024-02-23T04:58:16;98824.78;;;7.80;77.95
7962;BME280;4026;43.652;24.906;2024-02-23T05:00:44;98822.53;;;7.75;78.98
7962;BME280;4026;43.652;24.906;2024-02-23T05:03:10;98821.31;;;7.68;78.45
7962;BME280;4026;43.652;24.906;2024-02-23T05:05:38;98818.84;;;7.66;78.76
7962;BME280;4026;43.652;24.906;2024-02-23T05:08:05;98824.22;;;7.62;79.15
7962;BME280;4026;43.652;24.906;2024-02-23T05:10:32;98821.25;;;7.55;79.67
7962;BME280;4026;43.652;24.906;2024-02-23T05:12:59;98823.91;;;7.54;79.86
7962;BME280;4026;43.652;24.906;2024-02-23T05:15:25;98819.38;;;7.44;80.59
7962;BME280;4026;43.652;24.906;2024-02-23T05:17:54;98823.66;;;7.44;79.18
7962;BME280;4026;43.652;24.906;2024-02-23T05:20:20;98832.88;;;7.32;79.74
7962;BME280;4026;43.652;24.906;2024-02-23T05:22:48;98838.72;;;7.34;80.08
7962;BME280;4026;43.652;24.906;2024-02-23T05:25:14;98842.72;;;7.24;80.87
7962;BME280;4026;43.652;24.906;2024-02-23T05:27:41;98837.44;;;7.27;80.96
7962;BME280;4026;43.652;24.906;2024-02-23T05:30:09;98843.06;;;7.32;80.41
7962;BME280;4026;43.652;24.906;2024-02-23T05:32:36;98846.00;;;7.26;81.50
7962;BME280;4026;43.652;24.906;2024-02-23T05:35:05;98849.47;;;7.25;81.24
7962;BME280;4026;43.652;24.906;2024-02-23T05:37:32;98850.34;;;7.24;81.16
7962;BME280;4026;43.652;24.906;2024-02-23T05:39:59;98855.97;;;7.29;81.71
7962;BME280;4026;43.652;24.906;2024-02-23T05:42:29;98854.69;;;7.36;80.91
7962;BME280;4026;43.652;24.906;2024-02-23T05:44:56;98856.16;;;7.53;80.67
7962;BME280;4026;43.652;24.906;2024-02-23T05:47:22;98867.66;;;7.59;81.11
7962;BME280;4026;43.652;24.906;2024-02-23T05:49:50;98860.97;;;7.70;81.16
7962;BME280;4026;43.652;24.906;2024-02-23T05:52:18;98862.84;;;7.81;80.61
7962;BME280;4026;43.652;24.906;2024-02-23T05:54:45;98865.91;;;7.86;80.37
7962;BME280;4026;43.652;24.906;2024-02-23T05:57:12;98869.59;;;7.95;79.91
7962;BME280;4026;43.652;24.906;2024-02-23T05:59:39;98872.34;;;8.05;79.19
7962;BME280;4026;43.652;24.906;2024-02-23T06:02:05;98866.66;;;8.14;79.46
7962;BME280;4026;43.652;24.906;2024-02-23T06:04:32;98866.16;;;8.34;78.79
7962;BME280;4026;43.652;24.906;2024-02-23T06:06:59;98869.84;;;8.56;77.20
7962;BME280;4026;43.652;24.906;2024-02-23T06:09:27;98870.00;;;8.78;75.48
7962;BME280;4026;43.652;24.906;2024-02-23T06:11:54;98866.50;;;9.05;73.78
7962;BME280;4026;43.652;24.906;2024-02-23T06:14:21;98868.47;;;9.25;72.34
7962;BME280;4026;43.652;24.906;2024-02-23T06:16:48;98874.75;;;9.33;71.01
7962;BME280;4026;43.652;24.906;2024-02-23T06:19:15;98872.06;;;9.47;69.17
7962;BME280;4026;43.652;24.906;2024-02-23T06:21:42;98875.81;;;9.65;67.71
7962;BME280;4026;43.652;24.906;2024-02-23T06:24:09;98879.31;;;10.00;66.69
7962;BME280;4026;43.652;24.906;2024-02-23T06:26:37;98873.97;;;10.49;65.45
7962;BME280;4026;43.652;24.906;2024-02-23T06:29:03;98871.28;;;10.96;63.89
7962;BME280;4026;43.652;24.906;2024-02-23T06:31:31;98884.53;;;11.44;61.95
7962;BME280;4026;43.652;24.906;2024-02-23T06:33:59;98889.25;;;11.92;60.65
7962;BME280;4026;43.652;24.906;2024-02-23T06:36:26;98891.31;;;12.40;58.51
7962;BME280;4026;43.652;24.906;2024-02-23T06:38:53;98886.94;;;12.62;55.93
7962;BME280;4026;43.652;24.906;2024-02-23T06:41:19;98888.47;;;13.05;56.07
7962;BME280;4026;43.652;24.906;2024-02-23T06:43:48;98902.59;;;13.49;55.70
7962;BME280;4026;43.652;24.906;2024-02-23T06:46:14;98898.81;;;13.92;54.41
7962;BME280;4026;43.652;24.906;2024-02-23T06:48:41;98902.53;;;14.37;53.38
7962;BME280;4026;43.652;24.906;2024-02-23T06:51:08;98891.63;;;14.72;51.84
7962;BME280;4026;43.652;24.906;2024-02-23T06:53:35;98894.44;;;15.06;50.67
7962;BME280;4026;43.652;24.906;2024-02-23T06:56:03;98892.34;;;15.37;50.69
7962;BME280;4026;43.652;24.906;2024-02-23T06:58:30;98900.66;;;15.49;48.16
7962;BME280;4026;43.652;24.906;2024-02-23T07:00:58;98893.03;;;15.93;49.12
7962;BME280;4026;43.652;24.906;2024-02-23T07:03:28;98896.19;;;16.31;47.17
7962;BME280;4026;43.652;24.906;2024-02-23T07:05:55;98900.09;;;16.43;45.75
7962;BME280;4026;43.652;24.906;2024-02-23T07:08:21;98895.09;;;16.68;46.68
7962;BME280;4026;43.652;24.906;2024-02-23T07:10:48;98899.28;;;16.69;44.02
7962;BME280;4026;43.652;24.906;2024-02-23T07:13:15;98902.63;;;16.87;43.69
7962;BME280;4026;43.652;24.906;2024-02-23T07:15:43;98897.75;;;16.76;43.47
7962;BME280;4026;43.652;24.906;2024-02-23T07:18:11;98894.84;;;16.79;43.97
7962;BME280;4026;43.652;24.906;2024-02-23T07:20:38;98903.69;;;17.11;44.18
7962;BME280;4026;43.652;24.906;2024-02-23T07:23:05;98893.41;;;17.43;43.27
7962;BME280;4026;43.652;24.906;2024-02-23T07:25:32;98882.78;;;17.79;45.25
7962;BME280;4026;43.652;24.906;2024-02-23T07:27:58;98892.97;;;18.05;41.78
7962;BME280;4026;43.652;24.906;2024-02-23T07:30:25;98888.72;;;18.29;42.96
7962;BME280;4026;43.652;24.906;2024-02-23T07:32:52;98885.22;;;18.69;40.97
7962;BME280;4026;43.652;24.906;2024-02-23T07:35:20;98879.34;;;18.84;38.46
7962;BME280;4026;43.652;24.906;2024-02-23T07:37:47;98887.75;;;18.94;39.33
7962;BME280;4026;43.652;24.906;2024-02-23T07:40:14;98890.19;;;19.18;39.73
7962;BME280;4026;43.652;24.906;2024-02-23T07:42:41;98890.78;;;19.29;40.29
7962;BME280;4026;43.652;24.906;2024-02-23T07:45:08;98895.09;;;19.05;38.79
7962;BME280;4026;43.652;24.906;2024-02-23T07:47:36;98891.38;;;18.76;38.80
7962;BME280;4026;43.652;24.906;2024-02-23T07:50:03;98894.75;;;18.13;39.12
7962;BME280;4026;43.652;24.906;2024-02-23T07:52:31;98889.44;;;16.64;42.21
7962;BME280;4026;43.652;24.906;2024-02-23T07:54:58;98890.84;;;17.68;42.51
7962;BME280;4026;43.652;24.906;2024-02-23T07:57:27;98893.06;;;18.45;41.81
7962;BME280;4026;43.652;24.906;2024-02-23T07:59:55;98885.56;;;18.58;40.53
7962;BME280;4026;43.652;24.906;2024-02-23T08:02:21;98886.59;;;19.19;41.54
7962;BME280;4026;43.652;24.906;2024-02-23T08:04:48;98894.31;;;19.59;38.64
7962;BME280;4026;43.652;24.906;2024-02-23T08:07:15;98888.63;;;19.63;39.58
7962;BME280;4026;43.652;24.906;2024-02-23T08:09:44;98888.38;;;19.96;37.58
7962;BME280;4026;43.652;24.906;2024-02-23T08:12:11;98892.97;;;19.86;37.79
7962;BME280;4026;43.652;24.906;2024-02-23T08:14:39;98892.97;;;20.24;37.08
7962;BME280;4026;43.652;24.906;2024-02-23T08:17:06;98904.84;;;19.80;36.19
7962;BME280;4026;43.652;24.906;2024-02-23T08:19:33;98896.97;;;19.74;38.62
7962;BME280;4026;43.652;24.906;2024-02-23T08:22:00;98905.78;;;20.40;38.89
7962;BME280;4026;43.652;24.906;2024-02-23T08:24:26;98913.16;;;19.99;36.42
7962;BME280;4026;43.652;24.906;2024-02-23T08:26:55;98911.19;;;19.78;36.88
7962;BME280;4026;43.652;24.906;2024-02-23T08:29:21;98916.38;;;19.78;36.27
7962;BME280;4026;43.652;24.906;2024-02-23T08:31:48;98915.66;;;20.07;37.44
7962;BME280;4026;43.652;24.906;2024-02-23T08:34:15;98922.84;;;20.57;38.42
7962;BME280;4026;43.652;24.906;2024-02-23T08:36:43;98917.00;;;20.85;36.47
7962;BME280;4026;43.652;24.906;2024-02-23T08:39:09;98910.59;;;21.02;35.46
7962;BME280;4026;43.652;24.906;2024-02-23T08:41:36;98909.50;;;21.12;36.52
7962;BME280;4026;43.652;24.906;2024-02-23T08:44:05;98915.31;;;20.63;35.55
7962;BME280;4026;43.652;24.906;2024-02-23T08:46:32;98916.16;;;20.40;36.96
7962;BME280;4026;43.652;24.906;2024-02-23T08:48:59;98917.09;;;20.92;35.68
7962;BME280;4026;43.652;24.906;2024-02-23T08:51:25;98922.44;;;20.90;36.46
7962;BME280;4026;43.652;24.906;2024-02-23T08:53:52;98909.69;;;21.46;38.23
7962;BME280;4026;43.652;24.906;2024-02-23T08:56:20;98915.91;;;21.45;37.16
7962;BME280;4026;43.652;24.906;2024-02-23T08:58:47;98913.25;;;22.10;35.58
7962;BME280;4026;43.652;24.906;2024-02-23T09:01:15;98919.06;;;22.12;34.04
7962;BME280;4026;43.652;24.906;2024-02-23T09:03:42;98915.00;;;21.81;36.68
7962;BME280;4026;43.652;24.906;2024-02-23T09:06:11;98912.78;;;22.00;35.93
7962;BME280;4026;43.652;24.906;2024-02-23T09:08:38;98907.13;;;22.46;36.59
7962;BME280;4026;43.652;24.906;2024-02-23T09:11:06;98913.63;;;22.63;35.78
7962;BME280;4026;43.652;24.906;2024-02-23T09:13:33;98920.59;;;22.28;34.84
7962;BME280;4026;43.652;24.906;2024-02-23T09:16:00;98918.81;;;22.28;36.37
7962;BME280;4026;43.652;24.906;2024-02-23T09:18:29;98917.31;;;22.89;35.46
7962;BME280;4026;43.652;24.906;2024-02-23T09:20:57;98919.00;;;23.03;34.38
7962;BME280;4026;43.652;24.906;2024-02-23T09:23:23;98912.50;;;22.86;34.65
7962;BME280;4026;43.652;24.906;2024-02-23T09:25:49;98914.44;;;23.18;35.20
7962;BME280;4026;43.652;24.906;2024-02-23T09:28:16;98912.22;;;23.09;32.97
7962;BME280;4026;43.652;24.906;2024-02-23T09:30:43;98910.59;;;23.01;34.98
7962;BME280;4026;43.652;24.906;2024-02-23T09:33:10;98907.00;;;23.15;34.65
7962;BME280;4026;43.652;24.906;2024-02-23T09:35:38;98912.22;;;22.67;34.45
7962;BME280;4026;43.652;24.906;2024-02-23T09:38:05;98905.53;;;22.93;34.59
7962;BME280;4026;43.652;24.906;2024-02-23T09:40:31;98906.50;;;22.85;34.04
7962;BME280;4026;43.652;24.906;2024-02-23T09:42:59;98896.84;;;22.79;35.30
7962;BME280;4026;43.652;24.906;2024-02-23T09:45:26;98902.41;;;22.69;35.40
7962;BME280;4026;43.652;24.906;2024-02-23T09:47:53;98895.03;;;22.38;34.71
7962;BME280;4026;43.652;24.906;2024-02-23T09:50:22;98898.25;;;22.40;35.84
7962;BME280;4026;43.652;24.906;2024-02-23T09:52:51;98896.81;;;23.20;33.88
7962;BME280;4026;43.652;24.906;2024-02-23T09:55:18;98897.13;;;22.56;35.35
7962;BME280;4026;43.652;24.906;2024-02-23T09:57:47;98897.84;;;22.15;34.26
7962;BME280;4026;43.652;24.906;2024-02-23T10:00:16;98888.06;;;22.87;36.69
7962;BME280;4026;43.652;24.906;2024-02-23T10:02:43;98893.19;;;22.73;31.70
7962;BME280;4026;43.652;24.906;2024-02-23T10:05:11;98888.16;;;22.65;32.35
7962;BME280;4026;43.652;24.906;2024-02-23T10:07:38;98891.75;;;22.99;33.18
7962;BME280;4026;43.652;24.906;2024-02-23T10:10:08;98885.72;;;23.05;32.39
7962;BME280;4026;43.652;24.906;2024-02-23T10:12:36;98890.00;;;22.08;32.88
7962;BME280;4026;43.652;24.906;2024-02-23T10:15:04;98877.19;;;22.76;32.40
7962;BME280;4026;43.652;24.906;2024-02-23T10:17:31;98887.84;;;22.81;32.04
7962;BME280;4026;43.652;24.906;2024-02-23T10:19:59;98875.97;;;23.34;31.91
7962;BME280;4026;43.652;24.906;2024-02-23T10:22:30;98875.97;;;23.34;31.28
7962;BME280;4026;43.652;24.906;2024-02-23T10:24:57;98865.50;;;23.20;31.83
7962;BME280;4026;43.652;24.906;2024-02-23T10:27:25;98870.94;;;23.25;30.95
7962;BME280;4026;43.652;24.906;2024-02-23T10:29:53;98872.78;;;23.65;31.19
7962;BME280;4026;43.652;24.906;2024-02-23T10:32:20;98874.16;;;24.27;31.25
7962;BME280;4026;43.652;24.906;2024-02-23T10:34:48;98854.09;;;24.14;30.29
7962;BME280;4026;43.652;24.906;2024-02-23T10:37:16;98858.09;;;24.17;31.56
7962;BME280;4026;43.652;24.906;2024-02-23T10:39:45;98856.53;;;23.96;30.08
7962;BME280;4026;43.652;24.906;2024-02-23T10:42:12;98850.06;;;23.25;31.49
7962;BME280;4026;43.652;24.906;2024-02-23T10:44:43;98854.47;;;24.11;31.44
7962;BME280;4026;43.652;24.906;2024-02-23T10:47:11;98850.47;;;24.02;29.56
7962;BME280;4026;43.652;24.906;2024-02-23T10:49:38;98841.25;;;23.93;30.69
7962;BME280;4026;43.652;24.906;2024-02-23T10:52:07;98831.22;;;23.50;30.89
7962;BME280;4026;43.652;24.906;2024-02-23T10:54:38;98848.50;;;23.84;32.39
7962;BME280;4026;43.652;24.906;2024-02-23T10:57:06;98837.25;;;23.97;30.87
7962;BME280;4026;43.652;24.906;2024-02-23T10:59:33;98843.06;;;23.92;30.44
7962;BME280;4026;43.652;24.906;2024-02-23T11:02:03;98832.78;;;24.11;31.53
7962;BME280;4026;43.652;24.906;2024-02-23T11:04:31;98826.38;;;23.27;32.04
7962;BME280;4026;43.652;24.906;2024-02-23T11:07:00;98831.63;;;23.60;30.70
7962;BME280;4026;43.652;24.906;2024-02-23T11:09:32;98829.22;;;23.65;31.51
7962;BME280;4026;43.652;24.906;2024-02-23T11:12:04;98819.81;;;23.71;31.01
7962;BME280;4026;43.652;24.906;2024-02-23T11:14:31;98814.72;;;24.03;32.56
7962;BME280;4026;43.652;24.906;2024-02-23T11:17:00;98821.75;;;24.15;30.72
7962;BME280;4026;43.652;24.906;2024-02-23T11:19:38;98820.94;;;24.08;29.46
7962;BME280;4026;43.652;24.906;2024-02-23T11:22:09;98806.13;;;23.22;30.94
7962;BME280;4026;43.652;24.906;2024-02-23T11:24:42;98806.22;;;22.81;30.87
7962;BME280;4026;43.652;24.906;2024-02-23T11:27:13;98811.16;;;23.31;30.91
7962;BME280;4026;43.652;24.906;2024-02-23T11:29:43;98806.53;;;23.19;31.91
7962;BME280;4026;43.652;24.906;2024-02-23T11:32:14;98816.78;;;23.81;31.92
7962;BME280;4026;43.652;24.906;2024-02-23T11:34:41;98807.09;;;24.08;30.71
7962;BME280;4026;43.652;24.906;2024-02-23T11:37:09;98807.72;;;23.50;31.55
7962;BME280;4026;43.652;24.906;2024-02-23T11:39:37;98806.75;;;23.78;32.63
7962;BME280;4026;43.652;24.906;2024-02-23T11:42:06;98815.97;;;23.87;30.41
7962;BME280;4026;43.652;24.906;2024-02-23T11:44:33;98802.28;;;24.05;29.95
7962;BME280;4026;43.652;24.906;2024-02-23T11:47:00;98796.66;;;24.01;29.34
7962;BME280;4026;43.652;24.906;2024-02-23T11:49:29;98799.81;;;24.16;30.03
7962;BME280;4026;43.652;24.906;2024-02-23T11:51:56;98798.72;;;23.46;30.30
7962;BME280;4026;43.652;24.906;2024-02-23T11:54:23;98788.47;;;23.51;30.76
7962;BME280;4026;43.652;24.906;2024-02-23T11:56:51;98787.06;;;23.42;30.37
7962;BME280;4026;43.652;24.906;2024-02-23T11:59:18;98786.66;;;23.32;29.70
7962;BME280;4026;43.652;24.906;2024-02-23T12:01:46;98788.66;;;23.30;30.96
7962;BME280;4026;43.652;24.906;2024-02-23T12:04:14;98786.25;;;23.28;31.86
7962;BME280;4026;43.652;24.906;2024-02-23T12:06:43;98776.25;;;23.71;30.47
7962;BME280;4026;43.652;24.906;2024-02-23T12:09:11;98779.97;;;24.02;30.56
7962;BME280;4026;43.652;24.906;2024-02-23T12:11:39;98769.00;;;23.47;31.50
7962;BME280;4026;43.652;24.906;2024-02-23T12:14:06;98771.81;;;23.65;31.27
7962;BME280;4026;43.652;24.906;2024-02-23T12:16:34;98777.03;;;23.39;30.93
7962;BME280;4026;43.652;24.906;2024-02-23T12:19:01;98770.59;;;23.01;32.15
7962;BME280;4026;43.652;24.906;2024-02-23T12:21:29;98766.19;;;23.22;31.28
7962;BME280;4026;43.652;24.906;2024-02-23T12:23:57;98777.00;;;23.12;32.25
7962;BME280;4026;43.652;24.906;2024-02-23T12:26:24;98774.22;;;23.20;31.56
7962;BME280;4026;43.652;24.906;2024-02-23T12:28:50;98781.22;;;23.53;31.24
7962;BME280;4026;43.652;24.906;2024-02-23T12:31:23;98776.19;;;23.65;31.23
7962;BME280;4026;43.652;24.906;2024-02-23T12:33:52;98770.59;;;23.61;31.42
7962;BME280;4026;43.652;24.906;2024-02-23T12:36:18;98784.84;;;23.65;31.88
7962;BME280;4026;43.652;24.906;2024-02-23T12:38:45;98772.81;;;23.71;32.04
7962;BME280;4026;43.652;24.906;2024-02-23T12:41:14;98769.78;;;23.67;31.90
7962;BME280;4026;43.652;24.906;2024-02-23T12:43:40;98777.84;;;23.72;30.38
7962;BME280;4026;43.652;24.906;2024-02-23T12:46:07;98772.63;;;23.46;32.72
7962;BME280;4026;43.652;24.906;2024-02-23T12:48:34;98772.63;;;23.59;30.99
7962;BME280;4026;43.652;24.906;2024-02-23T12:51:02;98764.78;;;23.33;31.55
7962;BME280;4026;43.652;24.906;2024-02-23T12:53:33;98758.13;;;22.90;31.35
7962;BME280;4026;43.652;24.906;2024-02-23T12:56:02;98758.50;;;22.94;32.88
7962;BME280;4026;43.652;24.906;2024-02-23T12:58:30;98745.22;;;22.69;32.34
7962;BME280;4026;43.652;24.906;2024-02-23T13:00:57;98755.34;;;22.98;32.37
7962;BME280;4026;43.652;24.906;2024-02-23T13:03:25;98752.13;;;23.03;32.39
7962;BME280;4026;43.652;24.906;2024-02-23T13:05:52;98752.47;;;22.80;31.88
7962;BME280;4026;43.652;24.906;2024-02-23T13:08:19;98750.84;;;22.66;32.56
7962;BME280;4026;43.652;24.906;2024-02-23T13:10:46;98755.63;;;22.49;32.09
7962;BME280;4026;43.652;24.906;2024-02-23T13:13:13;98750.97;;;22.44;32.45
7962;BME280;4026;43.652;24.906;2024-02-23T13:15:42;98755.75;;;22.34;33.11
7962;BME280;4026;43.652;24.906;2024-02-23T13:18:09;98753.63;;;22.57;32.00